sensor_id;sensor_type;location;lat;lon;timestamp;P1;durP1;ratioP1;P2;durP2;ratioP2
48317;SDS011;34127;47.412;9.730;2022-08-21T00:01:48;3.85;;;2.05;;
48317;SDS011;34127;47.412;9.730;2022-08-21T00:04:14;2.92;;;1.70;;
48317;SDS011;34127;47.412;9.730;2022-08-21T00:06:40;6.60;;;2.10;;
48317;SDS011;34127;47.412;9.730;2022-08-21T00:09:07;2.90;;;1.67;;
48317;SDS011;34127;47.412;9.730;2022-08-21T00:11:33;3.72;;;2.00;;
48317;SDS011;34127;47.412;9.730;2022-08-21T00:14:01;4.00;;;1.70;;
48317;SDS011;34127;47.412;9.730;2022-08-21T00:16:27;5.45;;;1.77;;
48317;SDS011;34127;47.412;9.730;2022-08-21T00:18:53;7.47;;;2.10;;
48317;SDS011;34127;47.412;9.730;2022-08-21T00:21:19;2.53;;;1.50;;
48317;SDS011;34127;47.412;9.730;2022-08-21T00:23:45;2.78;;;1.60;;
48317;SDS011;34127;47.412;9.730;2022-08-21T00:26:11;4.53;;;1.40;;
48317;SDS011;34127;47.412;9.730;2022-08-21T00:28:37;2.78;;;1.60;;
48317;SDS011;34127;47.412;9.730;2022-08-21T00:31:04;4.18;;;1.77;;
48317;SDS011;34127;47.412;9.730;2022-08-21T00:33:30;2.60;;;1.50;;
48317;SDS011;34127;47.412;9.730;2022-08-21T00:35:56;3.83;;;1.80;;
48317;SDS011;34127;47.412;9.730;2022-08-21T00:38:23;4.30;;;1.80;;
48317;SDS011;34127;47.412;9.730;2022-08-21T00:40:56;3.30;;;1.98;;
48317;SDS011;34127;47.412;9.730;2022-08-21T00:43:25;4.45;;;1.70;;
48317;SDS011;34127;47.412;9.730;2022-08-21T00:45:52;4.35;;;1.85;;
48317;SDS011;34127;47.412;9.730;2022-08-21T00:48:19;3.72;;;1.70;;
48317;SDS011;34127;47.412;9.730;2022-08-21T00:50:48;2.95;;;1.83;;
48317;SDS011;34127;47.412;9.730;2022-08-21T00:53:14;3.15;;;2.08;;
48317;SDS011;34127;47.412;9.730;2022-08-21T00:55:40;6.00;;;2.30;;
48317;SDS011;34127;47.412;9.730;2022-08-21T00:58:08;4.20;;;2.70;;
48317;SDS011;34127;47.412;9.730;2022-08-21T01:00:37;6.68;;;3.30;;
48317;SDS011;34127;47.412;9.730;2022-08-21T01:03:08;7.05;;;3.15;;
48317;SDS011;34127;47.412;9.730;2022-08-21T01:05:35;7.15;;;3.72;;
48317;SDS011;34127;47.412;9.730;2022-08-21T01:08:01;5.38;;;3.50;;
48317;SDS011;34127;47.412;9.730;2022-08-21T01:10:28;7.28;;;3.20;;
48317;SDS011;34127;47.412;9.730;2022-08-21T01:12:55;7.85;;;2.80;;
48317;SDS011;34127;47.412;9.730;2022-08-21T01:15:22;4.50;;;2.55;;
48317;SDS011;34127;47.412;9.730;2022-08-21T01:17:49;6.13;;;2.15;;
48317;SDS011;34127;47.412;9.730;2022-08-21T01:20:16;3.47;;;2.30;;
48317;SDS011;34127;47.412;9.730;2022-08-21T01:22:42;3.42;;;2.35;;
48317;SDS011;34127;47.412;9.730;2022-08-21T01:25:09;4.88;;;2.17;;
48317;SDS011;34127;47.412;9.730;2022-08-21T01:27:36;7.13;;;2.13;;
48317;SDS011;34127;47.412;9.730;2022-08-21T01:30:13;3.05;;;2.00;;
48317;SDS011;34127;47.412;9.730;2022-08-21T01:32:39;3.60;;;1.90;;
48317;SDS011;34127;47.412;9.730;2022-08-21T01:35:06;3.22;;;2.00;;
48317;SDS011;34127;47.412;9.730;2022-08-21T01:37:32;6.13;;;2.10;;
48317;SDS011;34127;47.412;9.730;2022-08-21T01:39:59;4.78;;;1.98;;
48317;SDS011;34127;47.412;9.730;2022-08-21T01:42:25;3.15;;;1.80;;
48317;SDS011;34127;47.412;9.730;2022-08-21T01:44:51;3.58;;;2.13;;
48317;SDS011;34127;47.412;9.730;2022-08-21T01:47:17;4.53;;;1.88;;
48317;SDS011;34127;47.412;9.730;2022-08-21T01:49:44;4.53;;;2.03;;
48317;SDS011;34127;47.412;9.730;2022-08-21T01:52:10;3.80;;;2.17;;
48317;SDS011;34127;47.412;9.730;2022-08-21T01:54:37;5.05;;;1.88;;
48317;SDS011;34127;47.412;9.730;2022-08-21T01:57:04;2.80;;;1.85;;
48317;SDS011;34127;47.412;9.730;2022-08-21T01:59:31;3.47;;;1.85;;
48317;SDS011;34127;47.412;9.730;2022-08-21T02:01:58;6.93;;;2.20;;
48317;SDS011;34127;47.412;9.730;2022-08-21T02:04:24;4.68;;;2.22;;
48317;SDS011;34127;47.412;9.730;2022-08-21T02:06:50;5.68;;;2.35;;
48317;SDS011;34127;47.412;9.730;2022-08-21T02:09:17;7.10;;;2.15;;
48317;SDS011;34127;47.412;9.730;2022-08-21T02:11:43;3.42;;;2.35;;
48317;SDS011;34127;47.412;9.730;2022-08-21T02:14:13;5.50;;;2.60;;
48317;SDS011;34127;47.412;9.730;2022-08-21T02:16:40;3.28;;;2.20;;
48317;SDS011;34127;47.412;9.730;2022-08-21T02:19:06;4.75;;;2.70;;
48317;SDS011;34127;47.412;9.730;2022-08-21T02:21:33;5.43;;;2.70;;
48317;SDS011;34127;47.412;9.730;2022-08-21T02:23:59;5.10;;;3.10;;
48317;SDS011;34127;47.412;9.730;2022-08-21T02:26:25;5.00;;;2.95;;
48317;SDS011;34127;47.412;9.730;2022-08-21T02:28:52;6.00;;;2.90;;
48317;SDS011;34127;47.412;9.730;2022-08-21T02:31:18;4.93;;;2.70;;
48317;SDS011;34127;47.412;9.730;2022-08-21T02:33:44;5.28;;;2.85;;
48317;SDS011;34127;47.412;9.730;2022-08-21T02:36:10;5.07;;;2.75;;
48317;SDS011;34127;47.412;9.730;2022-08-21T02:38:37;5.50;;;2.63;;
48317;SDS011;34127;47.412;9.730;2022-08-21T02:41:19;6.90;;;2.50;;
48317;SDS011;34127;47.412;9.730;2022-08-21T02:43:46;4.00;;;2.60;;
48317;SDS011;34127;47.412;9.730;2022-08-21T02:46:13;5.05;;;2.30;;
48317;SDS011;34127;47.412;9.730;2022-08-21T02:48:40;6.03;;;2.53;;
48317;SDS011;34127;47.412;9.730;2022-08-21T02:51:08;5.82;;;2.30;;
48317;SDS011;34127;47.412;9.730;2022-08-21T02:53:34;4.75;;;2.55;;
48317;SDS011;34127;47.412;9.730;2022-08-21T02:56:02;3.97;;;2.53;;
48317;SDS011;34127;47.412;9.730;2022-08-21T02:58:30;4.85;;;2.40;;
48317;SDS011;34127;47.412;9.730;2022-08-21T03:00:57;3.95;;;2.40;;
48317;SDS011;34127;47.412;9.730;2022-08-21T03:03:23;7.80;;;2.40;;
48317;SDS011;34127;47.412;9.730;2022-08-21T03:05:50;3.70;;;2.15;;
48317;SDS011;34127;47.412;9.730;2022-08-21T03:08:16;3.80;;;2.10;;
48317;SDS011;34127;47.412;9.730;2022-08-21T03:10:45;3.33;;;2.15;;
48317;SDS011;34127;47.412;9.730;2022-08-21T03:13:11;4.82;;;2.40;;
48317;SDS011;34127;47.412;9.730;2022-08-21T03:15:38;4.38;;;2.20;;
48317;SDS011;34127;47.412;9.730;2022-08-21T03:18:05;3.72;;;2.22;;
48317;SDS011;34127;47.412;9.730;2022-08-21T03:20:31;3.35;;;2.10;;
48317;SDS011;34127;47.412;9.730;2022-08-21T03:22:58;4.78;;;2.03;;
48317;SDS011;34127;47.412;9.730;2022-08-21T03:25:25;4.22;;;2.28;;
48317;SDS011;34127;47.412;9.730;2022-08-21T03:27:52;3.97;;;2.33;;
48317;SDS011;34127;47.412;9.730;2022-08-21T03:30:19;4.65;;;2.50;;
48317;SDS011;34127;47.412;9.730;2022-08-21T03:32:45;4.13;;;2.55;;
48317;SDS011;34127;47.412;9.730;2022-08-21T03:35:12;4.22;;;2.67;;
48317;SDS011;34127;47.412;9.730;2022-08-21T03:37:38;6.93;;;3.00;;
48317;SDS011;34127;47.412;9.730;2022-08-21T03:40:05;4.90;;;2.97;;
48317;SDS011;34127;47.412;9.730;2022-08-21T03:42:31;4.00;;;2.83;;
48317;SDS011;34127;47.412;9.730;2022-08-21T03:44:57;4.60;;;2.70;;
48317;SDS011;34127;47.412;9.730;2022-08-21T03:47:23;5.78;;;3.42;;
48317;SDS011;34127;47.412;9.730;2022-08-21T03:49:50;8.75;;;4.70;;
48317;SDS011;34127;47.412;9.730;2022-08-21T03:52:16;9.25;;;5.60;;
48317;SDS011;34127;47.412;9.730;2022-08-21T03:54:43;15.52;;;6.28;;
48317;SDS011;34127;47.412;9.730;2022-08-21T03:57:09;9.07;;;5.28;;
48317;SDS011;34127;47.412;9.730;2022-08-21T03:59:36;8.40;;;4.65;;
48317;SDS011;34127;47.412;9.730;2022-08-21T04:02:03;8.13;;;4.05;;
48317;SDS011;34127;47.412;9.730;2022-08-21T04:04:30;8.02;;;4.82;;
48317;SDS011;34127;47.412;9.730;2022-08-21T04:06:57;6.22;;;3.70;;
48317;SDS011;34127;47.412;9.730;2022-08-21T04:09:23;6.30;;;3.50;;
48317;SDS011;34127;47.412;9.730;2022-08-21T04:11:49;8.20;;;3.90;;
48317;SDS011;34127;47.412;9.730;2022-08-21T04:14:16;6.85;;;3.17;;
48317;SDS011;34127;47.412;9.730;2022-08-21T04:16:43;6.78;;;3.40;;
48317;SDS011;34127;47.412;9.730;2022-08-21T04:19:09;6.75;;;3.42;;
48317;SDS011;34127;47.412;9.730;2022-08-21T04:21:36;5.00;;;2.97;;
48317;SDS011;34127;47.412;9.730;2022-08-21T04:24:03;7.13;;;3.10;;
48317;SDS011;34127;47.412;9.730;2022-08-21T04:26:29;4.75;;;3.08;;
48317;SDS011;34127;47.412;9.730;2022-08-21T04:28:56;5.78;;;2.92;;
48317;SDS011;34127;47.412;9.730;2022-08-21T04:31:23;5.60;;;2.90;;
48317;SDS011;34127;47.412;9.730;2022-08-21T04:33:49;5.72;;;2.63;;
48317;SDS011;34127;47.412;9.730;2022-08-21T04:36:15;5.80;;;2.67;;
48317;SDS011;34127;47.412;9.730;2022-08-21T04:38:42;6.80;;;2.50;;
48317;SDS011;34127;47.412;9.730;2022-08-21T04:41:08;5.18;;;2.60;;
48317;SDS011;34127;47.412;9.730;2022-08-21T04:43:34;4.47;;;2.90;;
48317;SDS011;34127;47.412;9.730;2022-08-21T04:46:00;6.47;;;2.80;;
48317;SDS011;34127;47.412;9.730;2022-08-21T04:48:26;4.93;;;2.72;;
48317;SDS011;34127;47.412;9.730;2022-08-21T04:53:33;6.15;;;3.10;;
48317;SDS011;34127;47.412;9.730;2022-08-21T04:56:02;3.65;;;2.50;;
48317;SDS011;34127;47.412;9.730;2022-08-21T04:58:29;5.43;;;3.10;;
48317;SDS011;34127;47.412;9.730;2022-08-21T05:00:58;6.07;;;2.78;;
48317;SDS011;34127;47.412;9.730;2022-08-21T05:03:24;5.55;;;2.78;;
48317;SDS011;34127;47.412;9.730;2022-08-21T05:05:50;4.38;;;2.50;;
48317;SDS011;34127;47.412;9.730;2022-08-21T05:08:17;3.67;;;2.42;;
48317;SDS011;34127;47.412;9.730;2022-08-21T05:10:44;3.88;;;2.40;;
48317;SDS011;34127;47.412;9.730;2022-08-21T05:13:11;5.28;;;2.67;;
48317;SDS011;34127;47.412;9.730;2022-08-21T05:15:39;3.75;;;2.50;;
48317;SDS011;34127;47.412;9.730;2022-08-21T05:18:05;4.75;;;2.50;;
48317;SDS011;34127;47.412;9.730;2022-08-21T05:20:31;6.90;;;2.90;;
48317;SDS011;34127;47.412;9.730;2022-08-21T05:22:59;4.88;;;2.30;;
48317;SDS011;34127;47.412;9.730;2022-08-21T05:25:26;4.38;;;2.72;;
48317;SDS011;34127;47.412;9.730;2022-08-21T05:27:52;4.90;;;2.33;;
48317;SDS011;34127;47.412;9.730;2022-08-21T05:30:19;3.40;;;2.35;;
48317;SDS011;34127;47.412;9.730;2022-08-21T05:32:45;4.18;;;2.55;;
48317;SDS011;34127;47.412;9.730;2022-08-21T05:35:12;6.47;;;2.90;;
48317;SDS011;34127;47.412;9.730;2022-08-21T05:37:38;6.40;;;3.20;;
48317;SDS011;34127;47.412;9.730;2022-08-21T05:40:05;6.05;;;3.45;;
48317;SDS011;34127;47.412;9.730;2022-08-21T05:42:32;5.55;;;3.22;;
48317;SDS011;34127;47.412;9.730;2022-08-21T05:44:59;8.93;;;3.20;;
48317;SDS011;34127;47.412;9.730;2022-08-21T05:47:25;5.40;;;3.20;;
48317;SDS011;34127;47.412;9.730;2022-08-21T05:49:51;6.95;;;3.50;;
48317;SDS011;34127;47.412;9.730;2022-08-21T05:52:20;5.03;;;3.30;;
48317;SDS011;34127;47.412;9.730;2022-08-21T05:54:47;6.85;;;3.45;;
48317;SDS011;34127;47.412;9.730;2022-08-21T05:57:13;4.90;;;3.13;;
48317;SDS011;34127;47.412;9.730;2022-08-21T05:59:39;4.15;;;2.95;;
48317;SDS011;34127;47.412;9.730;2022-08-21T06:02:05;3.70;;;2.40;;
48317;SDS011;34127;47.412;9.730;2022-08-21T06:04:39;4.05;;;2.17;;
48317;SDS011;34127;47.412;9.730;2022-08-21T06:07:06;4.07;;;2.20;;
48317;SDS011;34127;47.412;9.730;2022-08-21T06:09:33;4.13;;;2.25;;
48317;SDS011;34127;47.412;9.730;2022-08-21T06:12:06;3.83;;;2.17;;
48317;SDS011;34127;47.412;9.730;2022-08-21T06:14:33;10.57;;;2.80;;
48317;SDS011;34127;47.412;9.730;2022-08-21T06:17:06;4.93;;;2.20;;
48317;SDS011;34127;47.412;9.730;2022-08-21T06:19:33;4.57;;;2.33;;
48317;SDS011;34127;47.412;9.730;2022-08-21T06:21:59;3.97;;;2.67;;
48317;SDS011;34127;47.412;9.730;2022-08-21T06:24:25;3.60;;;2.35;;
48317;SDS011;34127;47.412;9.730;2022-08-21T06:26:52;6.68;;;2.97;;
48317;SDS011;34127;47.412;9.730;2022-08-21T06:29:18;5.05;;;2.97;;
48317;SDS011;34127;47.412;9.730;2022-08-21T06:31:45;3.65;;;2.35;;
48317;SDS011;34127;47.412;9.730;2022-08-21T06:34:11;3.40;;;2.30;;
48317;SDS011;34127;47.412;9.730;2022-08-21T06:36:38;5.53;;;2.70;;
48317;SDS011;34127;47.412;9.730;2022-08-21T06:39:04;4.40;;;2.65;;
48317;SDS011;34127;47.412;9.730;2022-08-21T06:41:30;6.28;;;2.17;;
48317;SDS011;34127;47.412;9.730;2022-08-21T06:43:56;12.55;;;2.40;;
48317;SDS011;34127;47.412;9.730;2022-08-21T06:46:24;6.70;;;2.30;;
48317;SDS011;34127;47.412;9.730;2022-08-21T06:48:50;4.10;;;1.80;;
48317;SDS011;34127;47.412;9.730;2022-08-21T06:51:17;2.25;;;1.52;;
48317;SDS011;34127;47.412;9.730;2022-08-21T06:53:43;3.78;;;1.70;;
48317;SDS011;34127;47.412;9.730;2022-08-21T06:56:10;2.80;;;1.70;;
48317;SDS011;34127;47.412;9.730;2022-08-21T06:58:36;3.00;;;1.58;;
48317;SDS011;34127;47.412;9.730;2022-08-21T07:01:02;5.60;;;2.03;;
48317;SDS011;34127;47.412;9.730;2022-08-21T07:05:54;3.17;;;1.67;;
48317;SDS011;34127;47.412;9.730;2022-08-21T07:08:23;3.50;;;1.60;;
48317;SDS011;34127;47.412;9.730;2022-08-21T07:10:49;6.80;;;4.90;;
48317;SDS011;34127;47.412;9.730;2022-08-21T07:13:15;2.72;;;1.58;;
48317;SDS011;34127;47.412;9.730;2022-08-21T07:15:42;9.18;;;2.13;;
48317;SDS011;34127;47.412;9.730;2022-08-21T07:18:08;3.13;;;1.70;;
48317;SDS011;34127;47.412;9.730;2022-08-21T07:20:34;3.28;;;1.65;;
48317;SDS011;34127;47.412;9.730;2022-08-21T07:23:01;3.38;;;1.60;;
48317;SDS011;34127;47.412;9.730;2022-08-21T07:25:28;3.50;;;1.60;;
48317;SDS011;34127;47.412;9.730;2022-08-21T07:27:55;2.88;;;1.65;;
48317;SDS011;34127;47.412;9.730;2022-08-21T07:30:21;3.33;;;1.75;;
48317;SDS011;34127;47.412;9.730;2022-08-21T07:32:47;5.13;;;1.88;;
48317;SDS011;34127;47.412;9.730;2022-08-21T07:35:17;3.78;;;1.75;;
48317;SDS011;34127;47.412;9.730;2022-08-21T07:37:44;2.50;;;1.50;;
48317;SDS011;34127;47.412;9.730;2022-08-21T07:40:10;2.30;;;1.45;;
48317;SDS011;34127;47.412;9.730;2022-08-21T07:42:43;2.35;;;1.50;;
48317;SDS011;34127;47.412;9.730;2022-08-21T07:45:10;3.95;;;1.60;;
48317;SDS011;34127;47.412;9.730;2022-08-21T07:47:36;4.05;;;1.65;;
48317;SDS011;34127;47.412;9.730;2022-08-21T07:50:03;2.60;;;1.50;;
48317;SDS011;34127;47.412;9.730;2022-08-21T07:52:30;3.10;;;1.60;;
48317;SDS011;34127;47.412;9.730;2022-08-21T07:54:57;2.80;;;1.48;;
48317;SDS011;34127;47.412;9.730;2022-08-21T07:57:23;2.20;;;1.50;;
48317;SDS011;34127;47.412;9.730;2022-08-21T07:59:49;2.58;;;1.45;;
48317;SDS011;34127;47.412;9.730;2022-08-21T08:02:22;2.85;;;1.50;;
48317;SDS011;34127;47.412;9.730;2022-08-21T08:04:48;2.85;;;1.50;;
48317;SDS011;34127;47.412;9.730;2022-08-21T08:07:15;2.25;;;1.40;;
48317;SDS011;34127;47.412;9.730;2022-08-21T08:09:41;3.28;;;1.50;;
48317;SDS011;34127;47.412;9.730;2022-08-21T08:12:08;2.22;;;1.40;;
48317;SDS011;34127;47.412;9.730;2022-08-21T08:14:34;3.28;;;1.60;;
48317;SDS011;34127;47.412;9.730;2022-08-21T08:17:01;2.38;;;1.55;;
48317;SDS011;34127;47.412;9.730;2022-08-21T08:19:27;3.85;;;1.50;;
48317;SDS011;34127;47.412;9.730;2022-08-21T08:21:53;2.90;;;1.45;;
48317;SDS011;34127;47.412;9.730;2022-08-21T08:24:20;2.08;;;1.30;;
48317;SDS011;34127;47.412;9.730;2022-08-21T08:26:46;2.10;;;1.38;;
48317;SDS011;34127;47.412;9.730;2022-08-21T08:29:12;2.40;;;1.50;;
48317;SDS011;34127;47.412;9.730;2022-08-21T08:31:39;2.67;;;1.50;;
48317;SDS011;34127;47.412;9.730;2022-08-21T08:34:05;5.22;;;1.60;;
48317;SDS011;34127;47.412;9.730;2022-08-21T08:36:32;2.47;;;1.33;;
48317;SDS011;34127;47.412;9.730;2022-08-21T08:38:59;2.40;;;1.30;;
48317;SDS011;34127;47.412;9.730;2022-08-21T08:41:26;2.55;;;1.60;;
48317;SDS011;34127;47.412;9.730;2022-08-21T08:43:53;2.50;;;1.40;;
48317;SDS011;34127;47.412;9.730;2022-08-21T08:46:23;3.60;;;1.40;;
48317;SDS011;34127;47.412;9.730;2022-08-21T08:48:55;3.95;;;1.40;;
48317;SDS011;34127;47.412;9.730;2022-08-21T08:51:29;3.47;;;1.30;;
48317;SDS011;34127;47.412;9.730;2022-08-21T08:53:59;2.58;;;1.33;;
48317;SDS011;34127;47.412;9.730;2022-08-21T08:56:29;2.20;;;1.35;;
48317;SDS011;34127;47.412;9.730;2022-08-21T08:58:57;2.53;;;1.60;;
48317;SDS011;34127;47.412;9.730;2022-08-21T09:01:25;3.78;;;1.40;;
48317;SDS011;34127;47.412;9.730;2022-08-21T09:03:51;2.85;;;1.40;;
48317;SDS011;34127;47.412;9.730;2022-08-21T09:06:37;3.38;;;1.63;;
48317;SDS011;34127;47.412;9.730;2022-08-21T09:14:31;3.22;;;1.50;;
48317;SDS011;34127;47.412;9.730;2022-08-21T09:22:06;2.67;;;1.30;;
48317;SDS011;34127;47.412;9.730;2022-08-21T09:27:17;2.65;;;1.45;;
48317;SDS011;34127;47.412;9.730;2022-08-21T09:29:45;2.53;;;1.50;;
48317;SDS011;34127;47.412;9.730;2022-08-21T09:37:31;3.22;;;1.80;;
48317;SDS011;34127;47.412;9.730;2022-08-21T09:39:59;2.75;;;1.50;;
48317;SDS011;34127;47.412;9.730;2022-08-21T09:42:29;2.13;;;1.40;;
48317;SDS011;34127;47.412;9.730;2022-08-21T09:45:08;4.88;;;1.85;;
48317;SDS011;34127;47.412;9.730;2022-08-21T09:47:35;2.53;;;1.60;;
48317;SDS011;34127;47.412;9.730;2022-08-21T09:50:24;3.85;;;1.50;;
48317;SDS011;34127;47.412;9.730;2022-08-21T09:52:49;2.25;;;1.50;;
48317;SDS011;34127;47.412;9.730;2022-08-21T09:55:22;3.35;;;1.73;;
48317;SDS011;34127;47.412;9.730;2022-08-21T09:58:07;2.50;;;1.58;;
48317;SDS011;34127;47.412;9.730;2022-08-21T10:00:34;3.85;;;1.67;;
48317;SDS011;34127;47.412;9.730;2022-08-21T10:03:07;3.97;;;2.00;;
48317;SDS011;34127;47.412;9.730;2022-08-21T10:05:33;4.30;;;1.70;;
48317;SDS011;34127;47.412;9.730;2022-08-21T10:08:00;2.90;;;1.83;;
48317;SDS011;34127;47.412;9.730;2022-08-21T10:10:29;3.50;;;1.75;;
48317;SDS011;34127;47.412;9.730;2022-08-21T10:18:18;5.53;;;1.70;;
48317;SDS011;34127;47.412;9.730;2022-08-21T10:20:51;3.33;;;1.80;;
48317;SDS011;34127;47.412;9.730;2022-08-21T10:34:18;3.42;;;1.90;;
48317;SDS011;34127;47.412;9.730;2022-08-21T10:39:33;3.50;;;2.20;;
48317;SDS011;34127;47.412;9.730;2022-08-21T10:44:35;3.50;;;2.05;;
48317;SDS011;34127;47.412;9.730;2022-08-21T10:50:13;2.90;;;2.13;;
48317;SDS011;34127;47.412;9.730;2022-08-21T10:55:10;3.10;;;1.90;;
48317;SDS011;34127;47.412;9.730;2022-08-21T11:00:14;4.15;;;2.08;;
48317;SDS011;34127;47.412;9.730;2022-08-21T11:05:21;3.78;;;1.80;;
48317;SDS011;34127;47.412;9.730;2022-08-21T11:07:54;2.85;;;1.80;;
48317;SDS011;34127;47.412;9.730;2022-08-21T11:10:24;3.47;;;1.80;;
48317;SDS011;34127;47.412;9.730;2022-08-21T11:12:52;2.60;;;1.70;;
48317;SDS011;34127;47.412;9.730;2022-08-21T11:15:37;3.53;;;1.92;;
48317;SDS011;34127;47.412;9.730;2022-08-21T11:20:42;6.65;;;1.90;;
48317;SDS011;34127;47.412;9.730;2022-08-21T11:23:20;5.22;;;1.83;;
48317;SDS011;34127;47.412;9.730;2022-08-21T11:25:49;2.75;;;1.77;;
48317;SDS011;34127;47.412;9.730;2022-08-21T11:28:21;3.15;;;1.90;;
48317;SDS011;34127;47.412;9.730;2022-08-21T11:30:56;2.95;;;1.80;;
48317;SDS011;34127;47.412;9.730;2022-08-21T11:33:43;4.93;;;1.93;;
48317;SDS011;34127;47.412;9.730;2022-08-21T11:36:15;4.00;;;1.90;;
48317;SDS011;34127;47.412;9.730;2022-08-21T11:38:48;3.70;;;1.85;;
48317;SDS011;34127;47.412;9.730;2022-08-21T11:43:45;4.75;;;2.10;;
48317;SDS011;34127;47.412;9.730;2022-08-21T11:51:18;6.20;;;1.80;;
48317;SDS011;34127;47.412;9.730;2022-08-21T11:54:28;4.97;;;1.80;;
48317;SDS011;34127;47.412;9.730;2022-08-21T11:56:35;2.55;;;1.60;;
48317;SDS011;34127;47.412;9.730;2022-08-21T11:59:09;2.53;;;1.60;;
48317;SDS011;34127;47.412;9.730;2022-08-21T12:01:37;4.70;;;1.67;;
48317;SDS011;34127;47.412;9.730;2022-08-21T12:04:10;3.20;;;1.67;;
48317;SDS011;34127;47.412;9.730;2022-08-21T12:06:42;3.65;;;1.77;;
48317;SDS011;34127;47.412;9.730;2022-08-21T12:09:10;4.30;;;1.83;;
48317;SDS011;34127;47.412;9.730;2022-08-21T12:11:46;3.20;;;1.70;;
48317;SDS011;34127;47.412;9.730;2022-08-21T12:14:15;3.97;;;2.00;;
48317;SDS011;34127;47.412;9.730;2022-08-21T12:16:45;3.42;;;1.70;;
48317;SDS011;34127;47.412;9.730;2022-08-21T12:21:49;3.22;;;1.77;;
48317;SDS011;34127;47.412;9.730;2022-08-21T12:24:17;4.60;;;1.70;;
48317;SDS011;34127;47.412;9.730;2022-08-21T12:26:58;4.07;;;1.67;;
48317;SDS011;34127;47.412;9.730;2022-08-21T12:29:28;3.60;;;1.70;;
48317;SDS011;34127;47.412;9.730;2022-08-21T12:32:00;3.13;;;1.70;;
48317;SDS011;34127;47.412;9.730;2022-08-21T12:34:31;3.10;;;1.63;;
48317;SDS011;34127;47.412;9.730;2022-08-21T12:37:07;4.18;;;1.65;;
48317;SDS011;34127;47.412;9.730;2022-08-21T12:39:37;3.83;;;1.60;;
48317;SDS011;34127;47.412;9.730;2022-08-21T12:42:06;3.58;;;1.50;;
48317;SDS011;34127;47.412;9.730;2022-08-21T12:44:38;3.13;;;1.70;;
48317;SDS011;34127;47.412;9.730;2022-08-21T12:47:13;3.88;;;1.63;;
48317;SDS011;34127;47.412;9.730;2022-08-21T12:49:45;4.35;;;1.60;;
48317;SDS011;34127;47.412;9.730;2022-08-21T12:52:29;3.92;;;1.50;;
48317;SDS011;34127;47.412;9.730;2022-08-21T12:54:56;3.38;;;1.88;;
48317;SDS011;34127;47.412;9.730;2022-08-21T12:57:24;4.05;;;1.77;;
48317;SDS011;34127;47.412;9.730;2022-08-21T12:59:55;2.80;;;1.50;;
48317;SDS011;34127;47.412;9.730;2022-08-21T13:02:23;2.38;;;1.50;;
48317;SDS011;34127;47.412;9.730;2022-08-21T13:04:50;3.80;;;1.88;;
48317;SDS011;34127;47.412;9.730;2022-08-21T13:07:26;5.05;;;1.70;;
48317;SDS011;34127;47.412;9.730;2022-08-21T13:09:53;3.90;;;1.67;;
48317;SDS011;34127;47.412;9.730;2022-08-21T13:12:20;3.75;;;1.75;;
48317;SDS011;34127;47.412;9.730;2022-08-21T13:14:47;3.92;;;1.58;;
48317;SDS011;34127;47.412;9.730;2022-08-21T13:17:16;3.00;;;1.70;;
48317;SDS011;34127;47.412;9.730;2022-08-21T13:19:51;3.45;;;1.63;;
48317;SDS011;34127;47.412;9.730;2022-08-21T13:22:18;3.30;;;1.60;;
48317;SDS011;34127;47.412;9.730;2022-08-21T13:24:46;4.05;;;1.67;;
48317;SDS011;34127;47.412;9.730;2022-08-21T13:27:20;3.22;;;1.55;;
48317;SDS011;34127;47.412;9.730;2022-08-21T13:29:47;4.22;;;1.58;;
48317;SDS011;34127;47.412;9.730;2022-08-21T13:32:18;3.75;;;1.65;;
48317;SDS011;34127;47.412;9.730;2022-08-21T13:34:46;2.78;;;1.50;;
48317;SDS011;34127;47.412;9.730;2022-08-21T13:37:12;2.40;;;1.50;;
48317;SDS011;34127;47.412;9.730;2022-08-21T13:39:39;2.67;;;1.50;;
48317;SDS011;34127;47.412;9.730;2022-08-21T13:42:09;4.88;;;1.60;;
48317;SDS011;34127;47.412;9.730;2022-08-21T13:44:39;3.33;;;1.50;;
48317;SDS011;34127;47.412;9.730;2022-08-21T13:47:05;2.65;;;1.50;;
48317;SDS011;34127;47.412;9.730;2022-08-21T13:49:34;3.78;;;1.95;;
48317;SDS011;34127;47.412;9.730;2022-08-21T13:52:01;3.45;;;1.70;;
48317;SDS011;34127;47.412;9.730;2022-08-21T13:54:33;2.83;;;1.60;;
48317;SDS011;34127;47.412;9.730;2022-08-21T13:56:59;4.07;;;1.70;;
48317;SDS011;34127;47.412;9.730;2022-08-21T13:59:30;3.17;;;1.60;;
48317;SDS011;34127;47.412;9.730;2022-08-21T14:02:13;2.83;;;1.52;;
48317;SDS011;34127;47.412;9.730;2022-08-21T14:07:33;4.65;;;1.83;;
48317;SDS011;34127;47.412;9.730;2022-08-21T14:10:04;2.35;;;1.50;;
48317;SDS011;34127;47.412;9.730;2022-08-21T14:12:53;3.30;;;1.70;;
48317;SDS011;34127;47.412;9.730;2022-08-21T14:17:43;3.83;;;1.92;;
48317;SDS011;34127;47.412;9.730;2022-08-21T14:20:26;3.20;;;1.50;;
48317;SDS011;34127;47.412;9.730;2022-08-21T14:22:52;3.42;;;1.80;;
48317;SDS011;34127;47.412;9.730;2022-08-21T14:27:54;4.13;;;1.83;;
48317;SDS011;34127;47.412;9.730;2022-08-21T14:30:28;3.85;;;1.63;;
48317;SDS011;34127;47.412;9.730;2022-08-21T14:32:54;3.55;;;1.70;;
48317;SDS011;34127;47.412;9.730;2022-08-21T14:35:21;3.40;;;1.70;;
48317;SDS011;34127;47.412;9.730;2022-08-21T14:37:47;3.92;;;1.60;;
48317;SDS011;34127;47.412;9.730;2022-08-21T14:40:17;3.05;;;1.70;;
48317;SDS011;34127;47.412;9.730;2022-08-21T14:42:44;2.70;;;1.60;;
48317;SDS011;34127;47.412;9.730;2022-08-21T14:45:13;3.20;;;1.60;;
48317;SDS011;34127;47.412;9.730;2022-08-21T14:47:40;3.65;;;1.77;;
48317;SDS011;34127;47.412;9.730;2022-08-21T14:50:08;2.85;;;1.77;;
48317;SDS011;34127;47.412;9.730;2022-08-21T14:52:34;3.30;;;1.60;;
48317;SDS011;34127;47.412;9.730;2022-08-21T14:55:01;3.03;;;1.52;;
48317;SDS011;34127;47.412;9.730;2022-08-21T14:57:27;3.42;;;1.80;;
48317;SDS011;34127;47.412;9.730;2022-08-21T14:59:55;3.03;;;1.70;;
48317;SDS011;34127;47.412;9.730;2022-08-21T15:02:21;3.08;;;1.70;;
48317;SDS011;34127;47.412;9.730;2022-08-21T15:04:48;3.75;;;1.80;;
48317;SDS011;34127;47.412;9.730;2022-08-21T15:07:14;3.78;;;1.70;;
48317;SDS011;34127;47.412;9.730;2022-08-21T15:09:40;3.03;;;1.80;;
48317;SDS011;34127;47.412;9.730;2022-08-21T15:12:06;3.63;;;1.92;;
48317;SDS011;34127;47.412;9.730;2022-08-21T15:14:34;4.10;;;2.30;;
48317;SDS011;34127;47.412;9.730;2022-08-21T15:17:02;3.08;;;1.90;;
48317;SDS011;34127;47.412;9.730;2022-08-21T15:19:29;3.40;;;1.60;;
48317;SDS011;34127;47.412;9.730;2022-08-21T15:21:55;2.97;;;1.70;;
48317;SDS011;34127;47.412;9.730;2022-08-21T15:24:21;3.08;;;1.40;;
48317;SDS011;34127;47.412;9.730;2022-08-21T15:26:48;2.17;;;1.40;;
48317;SDS011;34127;47.412;9.730;2022-08-21T15:29:14;3.47;;;1.40;;
48317;SDS011;34127;47.412;9.730;2022-08-21T15:31:49;2.70;;;1.40;;
48317;SDS011;34127;47.412;9.730;2022-08-21T15:34:15;3.58;;;1.50;;
48317;SDS011;34127;47.412;9.730;2022-08-21T15:36:42;3.67;;;1.60;;
48317;SDS011;34127;47.412;9.730;2022-08-21T15:39:08;6.80;;;1.50;;
48317;SDS011;34127;47.412;9.730;2022-08-21T15:41:34;3.55;;;1.50;;
48317;SDS011;34127;47.412;9.730;2022-08-21T15:44:00;2.58;;;1.52;;
48317;SDS011;34127;47.412;9.730;2022-08-21T15:46:26;3.17;;;1.40;;
48317;SDS011;34127;47.412;9.730;2022-08-21T15:48:52;2.40;;;1.33;;
48317;SDS011;34127;47.412;9.730;2022-08-21T15:51:18;2.72;;;1.40;;
48317;SDS011;34127;47.412;9.730;2022-08-21T15:53:45;4.82;;;1.60;;
48317;SDS011;34127;47.412;9.730;2022-08-21T15:56:14;3.28;;;1.50;;
48317;SDS011;34127;47.412;9.730;2022-08-21T15:58:43;3.05;;;1.50;;
48317;SDS011;34127;47.412;9.730;2022-08-21T16:01:09;2.47;;;1.50;;
48317;SDS011;34127;47.412;9.730;2022-08-21T16:03:35;2.50;;;1.55;;
48317;SDS011;34127;47.412;9.730;2022-08-21T16:06:01;3.38;;;1.50;;
48317;SDS011;34127;47.412;9.730;2022-08-21T16:08:27;3.28;;;1.48;;
48317;SDS011;34127;47.412;9.730;2022-08-21T16:10:54;2.08;;;1.40;;